CheckWX is a tool to help pilots better visualize weather data.  It is not intended as a substitute for an official pre-flight weather briefing.

18:19:36 UTC

KSZT METAR
Sandpoint Airport
Sandpoint, Idaho, USA
Current

25 mins ago

KSZT 021755Z AUTO 20005KT 10SM OVC030 12/07 A2997 RMK AO2
Observed
Jul-2 @ 17:55 UTC
Wind
  • 200° at 5 KTS
Visibility
10 SM
Flight Rules
MVFR
Cloud Levels
  • Overcast at 3,000' AGL
Temperature
12°C / 54°F
Dewpoint
C / 45°F
Humidity
72%
Altimeter
29.97" Hg
Pressure
1014.92 hPa
Previous

45 mins ago

KSZT 021735Z AUTO 22006KT 10SM BKN028 OVC034 12/07 A2996 RMK AO2
Observed
Jul-2 @ 17:35 UTC
Wind
  • 220° at 6 KTS
Visibility
10 SM
Flight Rules
MVFR
Cloud Levels
  • Broken at 2,800' AGL
  • Overcast at 3,400' AGL
Temperature
12°C / 54°F
Dewpoint
C / 45°F
Humidity
72%
Altimeter
29.96" Hg
Pressure
1014.52 hPa
Previous

1 hour ago

KSZT 021715Z AUTO 24003KT 10SM OVC026 12/08 A2996 RMK AO2
Observed
Jul-2 @ 17:15 UTC
Wind
  • 240° at 3 KTS
Visibility
10 SM
Flight Rules
MVFR
Cloud Levels
  • Overcast at 2,600' AGL
Temperature
12°C / 54°F
Dewpoint
C / 46°F
Humidity
77%
Altimeter
29.96" Hg
Pressure
1014.52 hPa